Time;durP1;ratioP1;P1;durP2;ratioP2;P2;SDS_P1;SDS_P2;PMS_P1;PMS_P2;Temp;Humidity;BMP_temperature;BMP_pressure;BME280_temperature;BME280_humidity;BME280_pressure;Samples;Min_cycle;Max_cycle;Signal;HPM_P1;HPM_P2
2022/05/06 00:01:30;;;;;;;1.60;0.88;;;23.80;43.20;;;;;;4985752;28;20570;-44
2022/05/06 00:03:56;;;;;;;1.60;0.88;;;23.80;43.20;;;;;;4985463;28;20022;-44
2022/05/06 00:06:21;;;;;;;2.28;0.90;;;23.70;43.30;;;;;;4985960;28;20080;-44
2022/05/06 00:08:47;;;;;;;1.42;0.68;;;23.80;43.30;;;;;;4985387;28;20030;-44
2022/05/06 00:11:13;;;;;;;1.70;0.90;;;23.70;43.30;;;;;;4984914;28;20045;-44
2022/05/06 00:13:38;;;;;;;1.90;0.98;;;23.70;43.40;;;;;;4985456;28;20041;-44
2022/05/06 00:16:04;;;;;;;3.03;1.15;;;23.70;43.30;;;;;;4985634;28;20086;-44
2022/05/06 00:18:34;;;;;;;1.10;0.70;;;23.70;43.40;;;;;;4985308;28;20189;-44
2022/05/06 00:21:00;;;;;;;1.58;0.98;;;23.70;43.40;;;;;;4985369;28;20018;-43
2022/05/06 00:23:26;;;;;;;1.73;0.90;;;23.70;43.30;;;;;;4985363;28;20023;-44
2022/05/06 00:25:52;;;;;;;1.30;0.73;;;23.70;43.30;;;;;;4984821;28;20019;-44
2022/05/06 00:28:18;;;;;;;1.52;0.90;;;23.70;43.40;;;;;;4985193;28;20583;-44
2022/05/06 00:30:44;;;;;;;1.17;0.70;;;23.70;43.30;;;;;;4984732;28;20601;-43
2022/05/06 00:33:09;;;;;;;1.75;0.80;;;23.70;43.30;;;;;;4984196;28;20022;-44
2022/05/06 00:35:36;;;;;;;1.58;0.90;;;23.70;43.30;;;;;;4984986;28;20109;-44
2022/05/06 00:38:03;;;;;;;1.73;0.88;;;23.70;43.30;;;;;;4983889;28;20030;-44
2022/05/06 00:40:29;;;;;;;1.48;0.82;;;23.70;43.20;;;;;;4985056;28;20054;-44
2022/05/06 00:42:56;;;;;;;2.20;0.93;;;23.70;43.20;;;;;;4984909;28;20136;-44
2022/05/06 00:45:22;;;;;;;2.05;0.70;;;23.70;43.20;;;;;;4984980;28;20109;-44
2022/05/06 00:47:49;;;;;;;1.35;0.85;;;23.70;43.20;;;;;;4984690;28;20035;-44
2022/05/06 00:50:16;;;;;;;1.38;0.70;;;23.70;43.20;;;;;;4984933;28;20030;-44
2022/05/06 00:52:42;;;;;;;1.85;0.98;;;23.70;43.30;;;;;;4985141;28;20061;-43
2022/05/06 00:55:09;;;;;;;1.67;0.80;;;23.70;44.00;;;;;;4985177;28;20022;-44
2022/05/06 00:57:35;;;;;;;2.30;0.90;;;23.70;43.40;;;;;;4984699;28;20030;-44
2022/05/06 01:00:19;;;;;;;1.52;0.80;;;23.70;43.40;;;;;;4985834;28;20049;-43
2022/05/06 01:02:48;;;;;;;1.70;0.90;;;23.70;43.50;;;;;;4984747;28;20026;-44
2022/05/06 01:05:14;;;;;;;1.35;0.73;;;23.70;43.40;;;;;;4975272;28;20027;-44
2022/05/06 01:07:43;;;;;;;1.02;0.70;;;23.70;43.50;;;;;;4985431;28;20033;-44
2022/05/06 01:10:09;;;;;;;1.60;0.70;;;23.70;43.50;;;;;;4985392;28;20030;-44
2022/05/06 01:12:35;;;;;;;1.52;0.82;;;23.70;43.60;;;;;;4985082;28;20030;-43
2022/05/06 01:15:01;;;;;;;1.45;0.80;;;23.70;43.50;;;;;;4985120;28;20084;-44
2022/05/06 01:17:27;;;;;;;1.55;0.85;;;23.60;43.50;;;;;;4985357;28;20038;-44
2022/05/06 01:19:52;;;;;;;1.10;0.60;;;23.70;43.60;;;;;;4984323;28;20033;-44
2022/05/06 01:22:18;;;;;;;1.30;0.75;;;23.60;43.40;;;;;;4984791;28;20568;-44
2022/05/06 01:24:44;;;;;;;1.02;0.55;;;23.70;43.50;;;;;;4984917;28;20105;-44
2022/05/06 01:27:38;;;;;;;1.75;0.70;;;23.70;43.50;;;;;;4984458;28;20149;-43
2022/05/06 01:30:05;;;;;;;1.83;0.80;;;23.70;43.50;;;;;;4983904;28;20096;-43
2022/05/06 01:32:32;;;;;;;1.98;0.90;;;23.70;43.50;;;;;;4983989;28;20037;-44
2022/05/06 01:35:00;;;;;;;1.45;0.80;;;23.70;43.60;;;;;;4984717;28;20507;-44
2022/05/06 01:37:27;;;;;;;1.20;0.80;;;23.60;43.50;;;;;;4985219;28;20027;-43
2022/05/06 01:39:56;;;;;;;1.13;0.60;;;23.60;43.60;;;;;;4984931;28;20081;-44
2022/05/06 01:42:23;;;;;;;2.38;0.80;;;23.60;43.50;;;;;;4984493;28;20062;-44
2022/05/06 01:44:51;;;;;;;1.52;0.77;;;23.60;43.60;;;;;;4987540;28;20030;-43
2022/05/06 01:47:25;;;;;;;1.67;0.80;;;23.60;43.60;;;;;;4988817;28;20037;-44
2022/05/06 01:49:53;;;;;;;1.45;0.90;;;23.60;43.70;;;;;;4988493;28;20026;-43
2022/05/06 01:52:20;;;;;;;1.83;0.70;;;23.60;43.70;;;;;;4987865;28;20038;-44
2022/05/06 01:54:46;;;;;;;1.95;0.93;;;23.60;43.70;;;;;;4989048;28;20027;-45
2022/05/06 01:57:13;;;;;;;1.48;0.80;;;23.60;43.60;;;;;;4988332;28;20599;-45
2022/05/06 01:59:39;;;;;;;1.10;0.80;;;23.60;43.60;;;;;;4988603;28;20031;-46
2022/05/06 02:02:04;;;;;;;1.27;0.70;;;23.60;43.70;;;;;;4987750;28;20540;-45
2022/05/06 02:07:15;;;;;;;2.00;0.80;;;23.60;43.60;;;;;;4969276;28;20058;-45
2022/05/06 02:09:41;;;;;;;2.47;0.70;;;23.60;43.50;;;;;;4968901;28;20043;-45
2022/05/06 02:12:07;;;;;;;0.88;0.60;;;23.60;43.60;;;;;;4985642;28;20093;-45
2022/05/06 02:14:33;;;;;;;2.67;1.02;;;23.60;43.60;;;;;;4988256;28;20038;-46
2022/05/06 02:16:59;;;;;;;1.23;0.70;;;23.60;43.60;;;;;;4988798;28;20030;-44
2022/05/06 02:19:25;;;;;;;0.82;0.47;;;23.60;43.60;;;;;;4988251;28;20034;-45
2022/05/06 02:21:51;;;;;;;1.70;0.80;;;23.60;43.70;;;;;;4988170;28;20120;-46
2022/05/06 02:24:17;;;;;;;1.02;0.55;;;23.60;43.70;;;;;;4988593;28;20043;-46
2022/05/06 02:26:43;;;;;;;1.45;0.60;;;23.60;43.70;;;;;;4987490;28;20038;-45
2022/05/06 02:29:08;;;;;;;1.52;0.77;;;23.60;43.70;;;;;;4988261;28;20022;-44
2022/05/06 02:34:20;;;;;;;1.08;0.75;;;23.60;43.70;;;;;;4988340;28;20073;-45
2022/05/06 02:36:46;;;;;;;1.20;0.70;;;23.60;43.70;;;;;;4987400;28;20073;-46
2022/05/06 02:39:12;;;;;;;1.30;0.68;;;23.60;43.70;;;;;;4987414;28;20124;-44
2022/05/06 02:41:38;;;;;;;1.55;0.90;;;23.60;44.40;;;;;;4987736;28;20037;-45
2022/05/06 02:44:04;;;;;;;0.82;0.60;;;23.60;43.70;;;;;;4987635;28;20027;-45
2022/05/06 02:46:33;;;;;;;1.67;0.85;;;23.60;43.70;;;;;;4988031;28;20026;-45
2022/05/06 02:49:00;;;;;;;1.50;0.80;;;23.60;43.70;;;;;;4987884;28;20088;-45
2022/05/06 02:51:28;;;;;;;1.42;0.73;;;23.60;43.70;;;;;;4987050;28;20446;-46
2022/05/06 02:53:57;;;;;;;1.67;0.90;;;23.60;43.70;;;;;;4988114;28;20157;-45
2022/05/06 02:56:24;;;;;;;1.05;0.70;;;23.60;43.60;;;;;;4986422;28;20023;-45
2022/05/06 02:58:50;;;;;;;1.58;0.88;;;23.60;43.60;;;;;;4985071;28;20089;-45
2022/05/06 03:01:16;;;;;;;1.80;0.77;;;23.60;43.60;;;;;;4987350;28;20034;-45
2022/05/06 03:03:42;;;;;;;1.45;0.70;;;23.60;44.30;;;;;;4987390;28;20027;-45
2022/05/06 03:06:07;;;;;;;1.42;0.77;;;23.60;43.70;;;;;;4986651;28;20046;-45
2022/05/06 03:08:33;;;;;;;3.72;0.98;;;23.60;43.70;;;;;;4986998;28;20169;-45
2022/05/06 03:10:59;;;;;;;1.25;0.80;;;23.50;43.70;;;;;;4986633;28;20116;-46
2022/05/06 03:13:25;;;;;;;1.20;0.75;;;23.60;43.80;;;;;;4986745;28;20590;-45
2022/05/06 03:15:52;;;;;;;2.63;0.90;;;23.60;43.80;;;;;;4986837;28;20022;-45
2022/05/06 03:18:18;;;;;;;1.52;0.70;;;23.50;43.80;;;;;;4985493;28;20038;-45
2022/05/06 03:20:44;;;;;;;1.73;0.95;;;23.60;43.80;;;;;;4986154;28;20030;-44
2022/05/06 03:23:10;;;;;;;1.48;0.80;;;23.60;43.80;;;;;;4987268;28;20082;-45
2022/05/06 03:25:36;;;;;;;1.58;0.90;;;23.60;43.80;;;;;;4986793;28;20046;-45
2022/05/06 03:28:07;;;;;;;0.70;0.57;;;23.60;43.80;;;;;;4986098;28;20530;-45
2022/05/06 03:30:40;;;;;;;1.00;0.60;;;23.60;43.80;;;;;;4987202;28;20489;-44
2022/05/06 03:33:10;;;;;;;1.63;0.88;;;23.60;43.80;;;;;;4986800;28;20030;-44
2022/05/06 03:35:37;;;;;;;1.45;0.70;;;23.60;43.70;;;;;;4987105;28;20054;-45
2022/05/06 03:38:05;;;;;;;1.17;0.65;;;23.60;43.70;;;;;;4987169;28;20746;-45
2022/05/06 03:40:32;;;;;;;1.83;0.82;;;23.60;43.70;;;;;;4986878;28;20022;-44
2022/05/06 03:42:58;;;;;;;1.35;0.75;;;23.60;43.70;;;;;;4986763;28;20399;-47
2022/05/06 03:45:24;;;;;;;1.20;0.70;;;23.60;43.70;;;;;;4987216;28;20034;-45
2022/05/06 03:47:50;;;;;;;1.10;0.70;;;23.60;43.70;;;;;;4986571;28;20575;-45
2022/05/06 03:53:00;;;;;;;1.08;0.60;;;23.60;43.70;;;;;;4986388;28;20029;-44
2022/05/06 03:55:26;;;;;;;1.05;0.63;;;23.50;43.80;;;;;;4986709;28;20427;-45
2022/05/06 03:57:52;;;;;;;1.63;0.93;;;23.50;43.70;;;;;;4985676;28;20018;-45
2022/05/06 04:00:19;;;;;;;1.45;0.80;;;23.50;43.80;;;;;;4985552;28;20034;-46
2022/05/06 04:02:46;;;;;;;1.98;0.85;;;23.50;43.80;;;;;;4981023;28;20111;-45
2022/05/06 04:05:12;;;;;;;1.40;0.75;;;23.50;43.80;;;;;;4986097;28;20029;-45
2022/05/06 04:07:38;;;;;;;1.35;0.77;;;23.50;43.80;;;;;;4985791;28;20624;-45
2022/05/06 04:10:05;;;;;;;1.25;0.80;;;23.50;43.80;;;;;;4986439;28;20036;-46
2022/05/06 04:12:31;;;;;;;1.42;0.73;;;23.50;43.80;;;;;;4979269;28;20041;-46
2022/05/06 04:14:56;;;;;;;1.05;0.70;;;23.50;43.90;;;;;;4985900;28;20030;-44
2022/05/06 04:17:22;;;;;;;1.65;0.90;;;23.50;43.80;;;;;;4986145;28;20081;-48
2022/05/06 04:25:19;;;;;;;1.08;0.65;;;23.50;43.80;;;;;;4985069;28;20093;-45
2022/05/06 04:27:45;;;;;;;1.33;0.65;;;23.50;43.70;;;;;;4985006;28;20038;-45
2022/05/06 04:30:11;;;;;;;1.35;0.70;;;23.50;43.70;;;;;;4983691;28;20108;-45
2022/05/06 04:32:38;;;;;;;1.65;0.90;;;23.50;43.70;;;;;;4982918;28;20575;-44
2022/05/06 04:35:05;;;;;;;1.85;1.13;;;23.50;43.80;;;;;;4984663;28;20084;-44
2022/05/06 04:37:32;;;;;;;1.77;0.90;;;23.50;43.80;;;;;;4984298;28;20045;-45
2022/05/06 04:39:58;;;;;;;1.48;0.85;;;23.50;43.80;;;;;;4983077;28;20571;-44
2022/05/06 04:42:24;;;;;;;2.03;1.00;;;23.50;43.80;;;;;;4983954;28;20054;-45
2022/05/06 04:44:51;;;;;;;4.38;1.65;;;23.50;43.80;;;;;;4984069;28;20578;-45
2022/05/06 04:47:16;;;;;;;15.25;4.90;;;23.50;43.80;;;;;;4983848;28;20562;-46
2022/05/06 04:49:42;;;;;;;14.60;5.43;;;23.50;44.40;;;;;;4984255;28;20042;-45
2022/05/06 04:52:08;;;;;;;19.33;5.55;;;23.50;44.50;;;;;;4983664;28;20048;-45
2022/05/06 04:54:34;;;;;;;15.57;5.15;;;23.50;44.70;;;;;;4982301;28;20045;-45
2022/05/06 04:57:00;;;;;;;17.25;5.22;;;23.50;44.80;;;;;;4976358;28;20027;-46
2022/05/06 04:59:26;;;;;;;13.40;4.45;;;23.50;44.90;;;;;;4984516;28;20077;-44
2022/05/06 05:01:52;;;;;;;11.02;4.18;;;23.50;45.00;;;;;;4982677;28;20023;-44
2022/05/06 05:04:18;;;;;;;9.02;3.55;;;23.60;45.00;;;;;;4983006;28;20061;-45
2022/05/06 05:06:43;;;;;;;12.07;3.88;;;23.60;44.90;;;;;;4983079;28;20038;-45
2022/05/06 05:09:09;;;;;;;13.02;4.18;;;23.50;45.00;;;;;;4982792;28;20096;-45
2022/05/06 05:11:35;;;;;;;8.32;3.80;;;23.60;44.90;;;;;;4982486;28;20038;-46
2022/05/06 05:14:04;;;;;;;8.02;3.78;;;23.60;45.60;;;;;;4983234;28;20084;-45
2022/05/06 05:16:30;;;;;;;9.63;3.90;;;23.60;45.00;;;;;;4984023;28;20532;-45
2022/05/06 05:18:56;;;;;;;8.98;3.63;;;23.60;44.90;;;;;;4981446;28;20049;-45
2022/05/06 05:21:21;;;;;;;9.65;3.90;;;23.60;44.90;;;;;;4982008;28;20022;-45
2022/05/06 05:23:47;;;;;;;10.45;4.18;;;23.60;44.90;;;;;;4972042;28;20042;-46
2022/05/06 05:26:13;;;;;;;11.65;3.72;;;23.60;44.90;;;;;;4971689;28;20031;-45
2022/05/06 05:28:38;;;;;;;11.18;4.25;;;23.60;45.00;;;;;;4976911;28;20058;-45
2022/05/06 05:31:04;;;;;;;9.68;3.60;;;23.60;45.70;;;;;;4977952;28;20530;-45
2022/05/06 05:33:30;;;;;;;8.07;3.28;;;23.60;46.20;;;;;;4981020;28;20438;-44
2022/05/06 05:35:56;;;;;;;11.07;3.28;;;23.60;45.50;;;;;;4983645;28;20094;-44
2022/05/06 05:38:22;;;;;;;9.27;2.88;;;23.60;45.30;;;;;;4982896;28;20026;-44
2022/05/06 05:40:48;;;;;;;6.80;2.92;;;23.60;45.10;;;;;;4983355;28;20057;-44
2022/05/06 05:48:42;;;;;;;7.18;2.38;;;23.60;44.70;;;;;;4982743;28;20081;-45
2022/05/06 05:51:08;;;;;;;6.70;2.70;;;23.60;44.60;;;;;;4983409;28;20034;-44
2022/05/06 05:53:34;;;;;;;8.48;2.17;;;23.60;44.50;;;;;;4982645;28;20395;-44
2022/05/06 05:56:00;;;;;;;4.55;2.08;;;23.60;44.40;;;;;;4982484;28;20026;-44
2022/05/06 05:58:26;;;;;;;6.10;2.00;;;23.60;44.40;;;;;;4984159;28;20030;-44
2022/05/06 06:00:52;;;;;;;7.95;2.00;;;23.60;44.30;;;;;;4984200;28;20026;-44
2022/05/06 06:03:18;;;;;;;7.25;2.30;;;23.60;44.20;;;;;;4984608;28;20035;-43
2022/05/06 06:05:44;;;;;;;5.60;1.92;;;23.60;44.20;;;;;;4984064;28;20141;-44
2022/05/06 06:08:10;;;;;;;3.85;2.05;;;23.60;44.10;;;;;;4984603;28;20088;-43
2022/05/06 06:10:36;;;;;;;5.55;1.95;;;23.60;44.10;;;;;;4983547;28;20338;-45
2022/05/06 06:13:04;;;;;;;3.92;1.70;;;23.60;44.10;;;;;;4983719;28;20035;-45
2022/05/06 06:15:31;;;;;;;5.68;2.15;;;23.60;44.00;;;;;;4984261;28;20041;-44
2022/05/06 06:17:57;;;;;;;4.25;2.08;;;23.60;44.00;;;;;;4983913;28;20030;-45
2022/05/06 06:20:23;;;;;;;3.25;1.45;;;23.60;44.00;;;;;;4983414;28;20442;-44
2022/05/06 06:22:50;;;;;;;4.55;2.08;;;23.60;43.90;;;;;;4982895;28;20156;-44
2022/05/06 06:25:16;;;;;;;4.50;1.80;;;23.60;43.80;;;;;;4984619;28;20030;-45
2022/05/06 06:27:43;;;;;;;3.80;1.52;;;23.60;43.80;;;;;;4983506;28;20036;-44
2022/05/06 06:30:10;;;;;;;3.80;1.60;;;23.60;43.80;;;;;;4985797;28;20109;-44
2022/05/06 06:32:36;;;;;;;5.15;1.65;;;23.60;43.80;;;;;;4986855;28;20414;-44
2022/05/06 06:35:03;;;;;;;4.63;1.80;;;23.60;43.80;;;;;;4988083;28;20030;-44
2022/05/06 06:37:31;;;;;;;5.68;1.88;;;23.60;43.80;;;;;;4988085;28;20521;-44
2022/05/06 06:39:57;;;;;;;6.22;2.25;;;23.60;43.80;;;;;;4987943;28;20045;-45
2022/05/06 06:42:23;;;;;;;3.67;1.73;;;23.60;43.70;;;;;;4987659;28;20026;-44
2022/05/06 06:44:49;;;;;;;3.25;1.65;;;23.60;43.70;;;;;;4986869;28;20102;-44
2022/05/06 06:47:15;;;;;;;4.72;1.88;;;23.60;43.70;;;;;;4987556;28;20121;-45
2022/05/06 06:49:41;;;;;;;4.15;1.83;;;23.60;43.70;;;;;;4985947;28;20114;-44
2022/05/06 06:52:07;;;;;;;5.05;1.70;;;23.60;43.70;;;;;;4985150;28;20491;-44
2022/05/06 06:54:33;;;;;;;3.53;1.77;;;23.60;43.70;;;;;;4986106;28;20553;-44
2022/05/06 06:56:59;;;;;;;3.28;1.55;;;23.60;43.70;;;;;;4985750;28;20023;-44
2022/05/06 06:59:25;;;;;;;4.25;1.55;;;23.60;43.60;;;;;;4986206;28;20470;-44
2022/05/06 07:01:50;;;;;;;3.90;1.75;;;23.60;44.30;;;;;;4986024;28;20472;-44
2022/05/06 07:04:16;;;;;;;4.82;1.70;;;23.60;43.60;;;;;;4986013;28;20026;-44
2022/05/06 07:12:11;;;;;;;3.55;1.48;;;23.60;43.60;;;;;;4986243;28;20076;-44
2022/05/06 07:14:36;;;;;;;4.93;2.03;;;23.60;43.60;;;;;;4986097;28;20426;-44
2022/05/06 07:17:05;;;;;;;6.18;1.73;;;23.60;43.60;;;;;;4986052;28;20035;-44
2022/05/06 07:19:32;;;;;;;3.60;1.60;;;23.60;43.60;;;;;;4985057;28;20129;-44
2022/05/06 07:21:58;;;;;;;3.13;1.40;;;23.60;43.60;;;;;;4985905;28;20034;-44
2022/05/06 07:24:25;;;;;;;3.40;1.50;;;23.60;43.60;;;;;;4986240;28;20038;-44
2022/05/06 07:26:52;;;;;;;2.70;1.13;;;23.60;43.50;;;;;;4986293;28;20041;-44
2022/05/06 07:29:19;;;;;;;4.35;1.77;;;23.60;43.60;;;;;;4986242;28;20042;-47
2022/05/06 07:31:45;;;;;;;3.15;1.33;;;23.60;43.50;;;;;;4985993;28;20049;-44
2022/05/06 07:34:12;;;;;;;4.57;1.70;;;23.60;43.50;;;;;;4987336;28;20026;-44
2022/05/06 07:36:42;;;;;;;3.38;1.65;;;23.60;43.50;;;;;;4986630;28;20027;-44
2022/05/06 07:39:09;;;;;;;3.85;1.70;;;23.60;43.50;;;;;;4985863;28;20490;-44
2022/05/06 07:41:35;;;;;;;3.60;1.75;;;23.60;43.50;;;;;;4985243;28;20041;-44
2022/05/06 07:44:00;;;;;;;4.40;1.75;;;23.60;43.50;;;;;;4986007;28;20022;-45
2022/05/06 07:46:26;;;;;;;2.90;1.40;;;23.60;43.50;;;;;;4985856;28;20031;-44
2022/05/06 07:48:52;;;;;;;3.65;1.38;;;23.60;43.40;;;;;;4983445;28;20018;-44
2022/05/06 07:51:18;;;;;;;4.43;1.58;;;23.60;43.50;;;;;;4984977;28;20046;-44
2022/05/06 07:53:44;;;;;;;3.90;1.40;;;23.60;43.50;;;;;;4985828;28;20085;-44
2022/05/06 07:56:09;;;;;;;4.13;1.52;;;23.60;43.40;;;;;;4986472;28;20026;-44
2022/05/06 07:58:38;;;;;;;3.35;1.65;;;23.60;43.40;;;;;;4986182;28;20034;-44
2022/05/06 08:01:05;;;;;;;2.42;1.23;;;23.60;43.40;;;;;;4985916;28;20045;-46
2022/05/06 08:06:15;;;;;;;4.45;1.92;;;23.60;43.40;;;;;;4985552;28;20137;-45
2022/05/06 08:08:41;;;;;;;3.30;1.25;;;23.60;43.40;;;;;;4984364;28;20518;-44
2022/05/06 08:11:07;;;;;;;3.10;1.40;;;23.60;43.30;;;;;;4985316;28;20595;-44
2022/05/06 08:13:33;;;;;;;2.92;1.45;;;23.60;43.30;;;;;;4985441;28;20097;-45
2022/05/06 08:15:58;;;;;;;4.07;1.48;;;23.60;43.30;;;;;;4985426;28;20031;-44
2022/05/06 08:18:24;;;;;;;3.30;1.50;;;23.60;43.30;;;;;;4985482;28;20029;-44
2022/05/06 08:20:53;;;;;;;3.97;1.60;;;23.60;43.30;;;;;;4984856;28;20026;-44
2022/05/06 08:23:23;;;;;;;2.58;1.20;;;23.60;43.30;;;;;;4985677;28;20030;-44
2022/05/06 08:25:53;;;;;;;3.15;1.55;;;23.60;43.30;;;;;;4985771;28;20041;-45
2022/05/06 08:28:19;;;;;;;3.75;1.70;;;23.60;43.30;;;;;;4984876;28;20065;-44
2022/05/06 08:30:49;;;;;;;2.70;1.20;;;23.60;43.30;;;;;;4966790;28;20046;-45
2022/05/06 08:33:15;;;;;;;2.97;1.20;;;23.60;43.30;;;;;;4968828;28;20209;-44
2022/05/06 08:35:42;;;;;;;2.60;1.40;;;23.60;43.30;;;;;;4985593;28;20124;-43
2022/05/06 08:38:10;;;;;;;2.50;1.35;;;23.60;43.30;;;;;;4985528;28;20034;-44
2022/05/06 08:40:36;;;;;;;3.25;1.40;;;23.60;43.30;;;;;;4984784;28;20033;-45
2022/05/06 08:43:04;;;;;;;2.83;1.40;;;23.60;43.30;;;;;;4985363;28;20030;-44
2022/05/06 08:51:03;;;;;;;3.22;1.35;;;23.60;43.20;;;;;;4985124;28;20541;-45
2022/05/06 08:53:31;;;;;;;3.72;1.45;;;23.60;43.20;;;;;;4983969;28;20034;-44
2022/05/06 08:55:59;;;;;;;3.20;1.38;;;23.60;43.20;;;;;;4985258;28;20059;-44
2022/05/06 08:58:28;;;;;;;4.22;1.67;;;23.60;43.20;;;;;;4985279;28;20034;-44
2022/05/06 09:01:15;;;;;;;2.67;1.20;;;23.60;43.10;;;;;;4984973;28;20026;-44
2022/05/06 09:03:43;;;;;;;2.42;1.33;;;23.60;43.20;;;;;;4986053;28;20117;-45
2022/05/06 09:06:30;;;;;;;3.28;1.48;;;23.60;43.10;;;;;;4985393;28;20506;-45
2022/05/06 09:08:58;;;;;;;3.08;1.20;;;23.60;43.20;;;;;;4984658;28;20038;-45
2022/05/06 09:14:20;;;;;;;2.60;1.33;;;23.60;43.20;;;;;;4985186;28;20122;-45
2022/05/06 09:16:46;;;;;;;2.90;1.25;;;23.60;43.20;;;;;;4985234;28;20057;-45
2022/05/06 09:19:20;;;;;;;3.28;1.33;;;23.60;43.20;;;;;;4985183;28;20066;-45
2022/05/06 09:22:10;;;;;;;1.83;1.05;;;23.60;43.20;;;;;;4984732;28;20061;-44
2022/05/06 09:24:40;;;;;;;2.80;1.30;;;23.60;43.20;;;;;;4985262;28;20464;-44
2022/05/06 09:27:13;;;;;;;1.88;1.00;;;23.60;43.20;;;;;;4985156;28;20038;-44
2022/05/06 09:29:43;;;;;;;2.70;1.23;;;23.60;43.20;;;;;;4984574;28;20041;-44
2022/05/06 09:32:25;;;;;;;2.50;1.10;;;23.60;43.20;;;;;;4985044;28;20031;-44
2022/05/06 09:35:12;;;;;;;2.30;1.00;;;23.60;43.10;;;;;;4985414;28;20116;-44
2022/05/06 09:37:46;;;;;;;2.08;1.17;;;23.60;43.20;;;;;;4985037;28;20029;-44
2022/05/06 09:40:14;;;;;;;3.00;1.17;;;23.60;43.10;;;;;;4985235;28;20530;-44
2022/05/06 09:42:57;;;;;;;2.67;1.10;;;23.70;43.20;;;;;;4984952;28;20058;-45
2022/05/06 09:45:33;;;;;;;2.05;1.20;;;23.60;43.10;;;;;;4984672;28;20034;-44
2022/05/06 09:48:03;;;;;;;2.05;1.10;;;23.60;43.00;;;;;;4984759;28;20144;-45
2022/05/06 09:50:36;;;;;;;3.05;1.30;;;23.70;43.10;;;;;;4984201;28;20135;-44
2022/05/06 09:53:04;;;;;;;2.80;1.30;;;23.70;43.10;;;;;;4984190;28;20295;-44
2022/05/06 09:55:30;;;;;;;2.58;1.40;;;23.70;43.10;;;;;;4983829;28;20022;-45
2022/05/06 09:57:57;;;;;;;2.20;1.20;;;23.70;43.10;;;;;;4984258;28;20030;-44
2022/05/06 10:00:23;;;;;;;3.00;1.50;;;23.70;43.20;;;;;;4983266;28;20581;-45
2022/05/06 10:02:50;;;;;;;2.78;1.40;;;23.60;43.00;;;;;;4984974;28;20042;-44
2022/05/06 10:05:15;;;;;;;2.78;1.10;;;23.70;43.20;;;;;;4986992;28;20036;-44
2022/05/06 10:07:45;;;;;;;2.05;1.00;;;23.70;43.90;;;;;;4988024;28;20034;-45
2022/05/06 10:10:21;;;;;;;3.10;1.27;;;23.70;43.20;;;;;;4989022;28;20433;-44
2022/05/06 10:12:57;;;;;;;3.33;1.42;;;23.60;43.10;;;;;;4988711;28;20074;-44
2022/05/06 10:15:26;;;;;;;2.90;1.33;;;23.70;43.20;;;;;;4988282;28;20038;-45
2022/05/06 10:17:53;;;;;;;2.55;1.25;;;23.70;43.10;;;;;;4987052;28;20042;-44
2022/05/06 10:20:41;;;;;;;2.67;1.42;;;23.70;43.10;;;;;;4987555;28;20022;-45
2022/05/06 10:23:08;;;;;;;2.28;1.08;;;23.70;43.10;;;;;;4968807;28;20038;-44
2022/05/06 10:25:42;;;;;;;3.03;1.10;;;23.70;43.10;;;;;;4968761;28;20037;-44
2022/05/06 10:34:14;;;;;;;2.67;1.00;;;23.60;43.00;;;;;;4987885;28;20088;-44
2022/05/06 10:36:48;;;;;;;2.22;1.20;;;23.70;43.00;;;;;;4988150;28;20018;-44
2022/05/06 10:39:39;;;;;;;2.15;1.10;;;23.70;43.10;;;;;;4987915;28;20023;-45
2022/05/06 10:42:18;;;;;;;1.65;0.80;;;23.70;43.10;;;;;;4987657;28;20038;-44
2022/05/06 10:44:50;;;;;;;2.28;1.15;;;23.70;43.10;;;;;;4988119;28;20023;-44
2022/05/06 10:47:16;;;;;;;2.60;1.25;;;23.70;43.00;;;;;;4987568;28;20451;-45
2022/05/06 10:49:43;;;;;;;3.38;1.30;;;23.70;43.00;;;;;;4988036;28;20057;-45
2022/05/06 10:52:28;;;;;;;2.80;1.10;;;23.70;43.10;;;;;;4987207;28;20535;-44
2022/05/06 10:55:03;;;;;;;1.90;1.13;;;23.70;43.20;;;;;;4987977;28;20041;-46
2022/05/06 10:57:30;;;;;;;3.40;1.42;;;23.70;43.10;;;;;;4987447;28;20514;-45
2022/05/06 11:00:15;;;;;;;3.00;1.20;;;23.70;43.10;;;;;;4987297;28;20038;-44
2022/05/06 11:02:40;;;;;;;1.75;0.90;;;23.70;43.10;;;;;;4968281;28;20035;-45
2022/05/06 11:05:12;;;;;;;2.40;1.23;;;23.70;43.10;;;;;;4968351;28;20085;-44
2022/05/06 11:07:39;;;;;;;1.88;0.90;;;23.70;43.00;;;;;;4984088;28;20503;-43
2022/05/06 11:10:12;;;;;;;2.05;1.00;;;23.70;43.00;;;;;;4987574;28;20189;-44
2022/05/06 11:12:53;;;;;;;1.95;1.00;;;23.70;43.00;;;;;;4980866;28;20027;-44
2022/05/06 11:15:32;;;;;;;2.88;1.33;;;23.70;43.10;;;;;;4982454;28;20142;-43
2022/05/06 11:18:06;;;;;;;3.47;1.13;;;23.70;43.10;;;;;;4985158;28;20022;-43
2022/05/06 11:20:37;;;;;;;3.28;1.40;;;23.70;43.20;;;;;;4983839;28;20027;-43
2022/05/06 11:23:04;;;;;;;3.78;1.10;;;23.70;43.40;;;;;;4984349;28;20068;-42
2022/05/06 11:25:32;;;;;;;3.67;1.30;;;23.70;43.50;;;;;;4985339;28;20031;-42
2022/05/06 11:27:59;;;;;;;3.60;1.20;;;23.70;43.70;;;;;;4984901;28;20029;-42
2022/05/06 11:30:27;;;;;;;3.08;1.25;;;23.70;43.80;;;;;;4981397;28;20038;-44
2022/05/06 11:32:55;;;;;;;3.17;1.48;;;23.70;43.90;;;;;;4982812;28;20034;-45
2022/05/06 11:35:35;;;;;;;3.95;1.38;;;23.70;44.40;;;;;;4973468;28;20023;-44
2022/05/06 11:38:03;;;;;;;4.45;1.90;;;23.70;44.40;;;;;;4980816;28;20026;-45
2022/05/06 11:40:34;;;;;;;4.38;1.65;;;23.70;44.60;;;;;;4984683;28;20419;-44
2022/05/06 11:43:01;;;;;;;2.92;1.45;;;23.70;44.40;;;;;;4977595;28;20064;-44
2022/05/06 11:48:13;;;;;;;3.55;1.40;;;23.70;44.40;;;;;;4985167;28;20026;-49
2022/05/06 11:50:41;;;;;;;4.00;1.60;;;23.70;44.50;;;;;;4985862;28;20038;-44
2022/05/06 11:53:08;;;;;;;3.15;1.27;;;23.70;44.40;;;;;;4980613;28;20072;-44
2022/05/06 11:55:44;;;;;;;5.10;1.85;;;23.70;45.60;;;;;;4983498;28;20105;-43
2022/05/06 11:58:16;;;;;;;3.80;1.42;;;23.70;45.90;;;;;;4973784;28;20390;-44
2022/05/06 12:00:43;;;;;;;2.40;1.25;;;23.80;46.10;;;;;;4981085;28;20022;-44
2022/05/06 12:03:10;;;;;;;3.38;1.20;;;23.80;46.00;;;;;;4984277;28;20634;-44
2022/05/06 12:05:37;;;;;;;2.88;1.20;;;23.80;46.20;;;;;;4984261;28;20038;-48
2022/05/06 12:08:03;;;;;;;3.33;1.88;;;23.80;46.30;;;;;;4983655;28;20675;-43
2022/05/06 12:10:37;;;;;;;3.78;1.58;;;23.90;46.20;;;;;;4984252;28;20042;-44
2022/05/06 12:13:07;;;;;;;3.85;1.67;;;23.80;46.20;;;;;;4971377;28;20070;-48
2022/05/06 12:15:35;;;;;;;4.18;1.73;;;23.80;46.20;;;;;;4985816;28;20389;-43
2022/05/06 12:18:24;;;;;;;2.95;1.50;;;23.90;46.50;;;;;;4977314;28;20137;-44
2022/05/06 12:20:50;;;;;;;4.25;1.83;;;23.90;46.50;;;;;;4966036;28;20489;-44
2022/05/06 12:23:27;;;;;;;3.92;1.65;;;23.90;46.80;;;;;;4985519;28;20061;-45
2022/05/06 12:25:56;;;;;;;3.70;1.33;;;23.90;47.20;;;;;;4985412;28;20026;-44
2022/05/06 12:28:23;;;;;;;3.67;2.00;;;23.90;47.00;;;;;;4991163;28;20026;-43
2022/05/06 12:30:56;;;;;;;2.78;1.40;;;23.90;47.00;;;;;;4989869;28;20034;-43
2022/05/06 12:33:34;;;;;;;3.63;1.58;;;23.90;47.00;;;;;;4986548;28;20057;-44
2022/05/06 12:36:04;;;;;;;3.40;1.67;;;23.90;47.20;;;;;;4977726;28;20026;-43
2022/05/06 12:38:39;;;;;;;3.45;1.48;;;23.90;47.40;;;;;;4984885;28;20039;-43
2022/05/06 12:41:26;;;;;;;4.78;1.55;;;24.00;47.20;;;;;;4984736;28;20442;-43
2022/05/06 12:43:53;;;;;;;3.28;1.30;;;24.00;47.30;;;;;;4983815;28;20176;-43
2022/05/06 12:46:30;;;;;;;3.40;1.80;;;24.00;47.20;;;;;;4986187;28;20046;-44
2022/05/06 12:51:44;;;;;;;3.60;1.42;;;24.00;47.10;;;;;;4984303;28;20029;-43
2022/05/06 12:54:10;;;;;;;3.90;1.45;;;24.00;47.00;;;;;;4985217;28;20725;-43
2022/05/06 12:56:38;;;;;;;3.70;1.60;;;24.00;47.10;;;;;;4984935;28;20030;-43
2022/05/06 12:59:05;;;;;;;3.40;1.42;;;24.00;47.20;;;;;;4985009;28;20022;-43
2022/05/06 13:01:31;;;;;;;4.07;2.03;;;24.00;47.20;;;;;;4984036;28;20026;-43
2022/05/06 13:03:57;;;;;;;3.05;1.50;;;24.00;47.20;;;;;;4984139;28;20027;-43
2022/05/06 13:06:22;;;;;;;4.43;1.70;;;24.00;46.80;;;;;;4984298;28;20424;-42
2022/05/06 13:08:49;;;;;;;2.92;1.70;;;24.00;46.50;;;;;;4982359;28;20026;-42
2022/05/06 13:11:15;;;;;;;2.97;1.80;;;24.10;46.50;;;;;;4984124;28;20044;-43
2022/05/06 13:13:41;;;;;;;2.60;1.50;;;24.10;46.10;;;;;;4983114;28;20030;-42
2022/05/06 13:16:09;;;;;;;3.08;1.42;;;24.00;45.80;;;;;;4980861;28;20026;-43
2022/05/06 13:18:35;;;;;;;4.57;1.65;;;24.00;45.90;;;;;;4967899;28;20038;-43
2022/05/06 13:21:00;;;;;;;4.05;2.00;;;24.10;47.10;;;;;;4964484;28;20109;-43
2022/05/06 13:23:26;;;;;;;4.13;1.73;;;24.10;47.20;;;;;;4983488;28;20038;-43
2022/05/06 13:25:52;;;;;;;3.42;1.42;;;24.10;47.10;;;;;;4978093;28;20033;-43
2022/05/06 13:28:18;;;;;;;4.05;1.83;;;24.10;47.10;;;;;;4983640;28;20045;-44
2022/05/06 13:30:44;;;;;;;3.42;1.55;;;24.10;47.20;;;;;;4984069;28;20681;-42
2022/05/06 13:33:10;;;;;;;3.53;1.83;;;24.10;47.20;;;;;;4984076;28;20117;-43
2022/05/06 13:35:35;;;;;;;4.53;1.40;;;24.10;47.00;;;;;;4984438;28;20037;-44
2022/05/06 13:38:01;;;;;;;3.83;1.63;;;24.10;47.20;;;;;;4983886;28;20022;-43